createdAt,value
2018-12-18T00:01:57.757Z,99658.28
2018-12-18T00:04:25.927Z,99655.69
2018-12-18T00:06:53.993Z,99658.87
2018-12-18T00:09:22.571Z,99654.03
2018-12-18T00:11:50.648Z,99653.36
2018-12-18T00:14:18.896Z,99644.47
2018-12-18T00:16:46.988Z,99640.55
2018-12-18T00:19:15.027Z,99644.83
2018-12-18T00:21:43.091Z,99648.31
2018-12-18T00:24:11.183Z,99640.55
2018-12-18T00:26:40.138Z,99642.98
2018-12-18T00:29:08.191Z,99638.64
2018-12-18T00:31:36.303Z,99642.05
2018-12-18T00:34:04.379Z,99635.02
2018-12-18T00:36:32.459Z,99643.64
2018-12-18T00:39:00.559Z,99642.16
2018-12-18T00:41:28.602Z,99636.03
2018-12-18T00:43:56.674Z,99637.14
2018-12-18T00:46:24.736Z,99635.86
2018-12-18T00:48:52.839Z,99642.80
2018-12-18T00:51:20.911Z,99639.86
2018-12-18T00:53:49.026Z,99639.12
2018-12-18T00:56:17.093Z,99637.13
2018-12-18T00:58:45.122Z,99635.86
2018-12-18T01:01:13.194Z,99636.09
2018-12-18T01:03:41.267Z,99634.45
2018-12-18T01:06:09.318Z,99634.55
2018-12-18T01:08:37.406Z,99634.80
2018-12-18T01:11:05.458Z,99631.30
2018-12-18T01:13:33.602Z,99632.56
2018-12-18T01:16:01.690Z,99638.88
2018-12-18T01:18:29.782Z,99636.22
2018-12-18T01:20:57.857Z,99637.70
2018-12-18T01:23:26.365Z,99637.83
2018-12-18T01:25:54.899Z,99638.01
2018-12-18T01:28:22.965Z,99639.25
2018-12-18T01:30:51.191Z,99637.34
2018-12-18T01:33:19.226Z,99632.81
2018-12-18T01:35:47.302Z,99634.08
2018-12-18T01:38:16.727Z,99633.09
2018-12-18T01:40:44.806Z,99626.95
2018-12-18T01:43:12.851Z,99625.94
2018-12-18T01:45:41.023Z,99631.20
2018-12-18T01:48:09.074Z,99632.58
2018-12-18T01:50:37.163Z,99624.52
2018-12-18T01:53:05.237Z,99631.50
2018-12-18T01:55:33.299Z,99627.80
2018-12-18T01:58:01.380Z,99629.47
2018-12-18T02:00:29.474Z,99625.69
2018-12-18T02:02:57.546Z,99627.66
2018-12-18T02:05:25.597Z,99618.89
2018-12-18T02:07:53.691Z,99614.14
2018-12-18T02:10:21.789Z,99616.24
2018-12-18T02:12:49.835Z,99617.95
2018-12-18T02:15:17.955Z,99616.20
2018-12-18T02:17:46.031Z,99608.77
2018-12-18T02:20:14.111Z,99606.48
2018-12-18T02:22:42.431Z,99601.27
2018-12-18T02:25:10.560Z,99599.38
2018-12-18T02:27:38.751Z,99603.83
2018-12-18T02:30:07.511Z,99596.78
2018-12-18T02:32:35.648Z,99601.66
2018-12-18T02:35:04.792Z,99597.63
2018-12-18T02:37:32.876Z,99594.45
2018-12-18T02:40:00.938Z,99593.95
2018-12-18T02:42:29.414Z,99592.35
2018-12-18T02:44:57.623Z,99591.87
2018-12-18T02:47:25.670Z,99589.56
2018-12-18T02:49:53.730Z,99585.06
2018-12-18T02:52:22.123Z,99588.80
2018-12-18T02:54:50.196Z,99589.48
2018-12-18T02:57:18.271Z,99583.82
2018-12-18T02:59:46.404Z,99581.05
2018-12-18T03:02:14.751Z,99588.06
2018-12-18T03:04:42.879Z,99583.62
2018-12-18T03:07:11.067Z,99578.62
2018-12-18T03:09:39.133Z,99581.37
2018-12-18T03:12:07.264Z,99582.94
2018-12-18T03:14:35.705Z,99587.29
2018-12-18T03:17:03.779Z,99579.70
2018-12-18T03:19:31.837Z,99578.95
2018-12-18T03:22:00.094Z,99570.11
2018-12-18T03:24:28.162Z,99572.88
2018-12-18T03:26:56.311Z,99570.78
2018-12-18T03:29:25.150Z,99568.09
2018-12-18T03:31:53.892Z,99572.16
2018-12-18T03:34:28.122Z,99569.23
2018-12-18T03:36:52.252Z,99567.25
2018-12-18T03:39:20.308Z,99562.45
2018-12-18T03:41:48.507Z,99561.69
2018-12-18T03:44:16.666Z,99557.04
2018-12-18T03:46:44.843Z,99561.27
2018-12-18T03:49:12.958Z,99564.08
2018-12-18T03:51:40.990Z,99559.34
2018-12-18T03:54:09.043Z,99561.48
2018-12-18T03:56:37.098Z,99560.78
2018-12-18T03:59:05.185Z,99560.89
2018-12-18T04:01:33.224Z,99566.29
2018-12-18T04:04:01.346Z,99564.48
2018-12-18T04:06:29.458Z,99558.31
2018-12-18T04:08:57.621Z,99558.14
2018-12-18T04:11:25.870Z,99554.55
2018-12-18T04:13:53.943Z,99558.62
2018-12-18T04:16:22.104Z,99558.92
2018-12-18T04:18:50.174Z,99565.63
2018-12-18T04:21:18.521Z,99566.30
2018-12-18T04:23:46.697Z,99565.98
2018-12-18T04:26:14.869Z,99560.20
2018-12-18T04:28:42.943Z,99562.69
2018-12-18T04:31:11.084Z,99561.96
2018-12-18T04:33:39.233Z,99566.73
2018-12-18T04:36:07.305Z,99565.34
2018-12-18T04:38:35.372Z,99563.62
2018-12-18T04:41:03.423Z,99558.64
2018-12-18T04:43:31.454Z,99562.30
2018-12-18T04:45:59.516Z,99553.41
2018-12-18T04:48:27.716Z,99550.63
2018-12-18T04:50:55.762Z,99545.36
2018-12-18T04:53:23.803Z,99542.84
2018-12-18T04:55:51.932Z,99541.99
2018-12-18T04:58:20.018Z,99541.57
2018-12-18T05:00:48.070Z,99542.80
2018-12-18T05:03:16.382Z,99539.48
2018-12-18T05:05:44.462Z,99537.22
2018-12-18T05:08:12.632Z,99537.38
2018-12-18T05:10:40.723Z,99530.33
2018-12-18T05:13:08.804Z,99535.91
2018-12-18T05:15:36.943Z,99536.36
2018-12-18T05:18:05.006Z,99549.58
2018-12-18T05:20:33.204Z,99557.44
2018-12-18T05:23:01.285Z,99555.39
2018-12-18T05:25:29.375Z,99569.81
2018-12-18T05:27:57.483Z,99569.06
2018-12-18T05:30:25.659Z,99566.37
2018-12-18T05:32:53.819Z,99567.92
2018-12-18T05:35:21.903Z,99567.34
2018-12-18T05:37:49.975Z,99561.30
2018-12-18T05:40:18.173Z,99555.98
2018-12-18T05:42:46.261Z,99554.39
2018-12-18T05:45:14.344Z,99561.56
2018-12-18T05:47:42.407Z,99560.98
2018-12-18T05:50:10.527Z,99557.34
2018-12-18T05:52:38.574Z,99551.95
2018-12-18T05:55:07.712Z,99545.38
2018-12-18T05:57:35.978Z,99544.52
2018-12-18T06:00:05.507Z,99542.44
2018-12-18T06:02:34.383Z,99547.42
2018-12-18T06:05:03.386Z,99542.70
2018-12-18T06:07:31.939Z,99539.37
2018-12-18T06:09:59.994Z,99538.57
2018-12-18T06:12:28.070Z,99537.16
2018-12-18T06:14:56.187Z,99534.06
2018-12-18T06:17:24.234Z,99538.61
2018-12-18T06:19:52.301Z,99543.23
2018-12-18T06:22:20.458Z,99543.01
2018-12-18T06:24:48.647Z,99543.07
2018-12-18T06:27:16.851Z,99548.77
2018-12-18T06:29:44.898Z,99549.02
2018-12-18T06:32:13.091Z,99554.38
2018-12-18T06:34:41.162Z,99559.09
2018-12-18T06:37:09.288Z,99563.08
2018-12-18T06:39:37.351Z,99564.52
2018-12-18T06:42:05.477Z,99555.88
2018-12-18T06:44:33.651Z,99550.09
2018-12-18T06:47:01.835Z,99553.58
2018-12-18T06:49:29.898Z,99554.59
2018-12-18T06:51:58.182Z,99543.86
2018-12-18T06:54:26.339Z,99543.34
2018-12-18T06:56:54.410Z,99543.98
2018-12-18T06:59:22.503Z,99542.84
2018-12-18T07:01:50.579Z,99541.20
2018-12-18T07:04:18.630Z,99544.00
2018-12-18T07:06:46.697Z,99542.18
2018-12-18T07:09:14.787Z,99548.22
2018-12-18T07:11:43.251Z,99546.44
2018-12-18T07:14:11.343Z,99547.38
2018-12-18T07:16:39.407Z,99543.45
2018-12-18T07:19:07.483Z,99547.19
2018-12-18T07:21:35.555Z,99546.03
2018-12-18T07:24:03.827Z,99537.82
2018-12-18T07:26:31.894Z,99538.88
2018-12-18T07:28:59.959Z,99536.47
2018-12-18T07:31:29.226Z,99533.00
2018-12-18T07:33:57.859Z,99529.52
2018-12-18T07:36:26.048Z,99528.11
2018-12-18T07:38:54.094Z,99526.56
2018-12-18T07:41:22.191Z,99525.44
2018-12-18T07:43:50.246Z,99521.88
2018-12-18T07:46:18.513Z,99533.47
2018-12-18T07:48:46.659Z,99531.59
2018-12-18T07:51:14.763Z,99534.73
2018-12-18T07:53:42.877Z,99539.25
2018-12-18T07:56:11.050Z,99541.48
2018-12-18T07:58:39.154Z,99541.23
2018-12-18T08:01:07.220Z,99544.07
2018-12-18T08:03:35.314Z,99528.70
2018-12-18T08:06:03.748Z,99524.40
2018-12-18T08:08:31.826Z,99517.52
2018-12-18T08:11:00.026Z,99509.00
2018-12-18T08:13:28.119Z,99501.92
2018-12-18T08:15:56.167Z,99503.66
2018-12-18T08:18:24.247Z,99498.92
2018-12-18T08:20:52.322Z,99492.05
2018-12-18T08:23:20.407Z,99486.06
2018-12-18T08:25:48.466Z,99482.86
2018-12-18T08:28:16.564Z,99491.78
2018-12-18T08:30:44.611Z,99491.15
2018-12-18T08:33:12.682Z,99476.80
2018-12-18T08:35:40.958Z,99458.08
2018-12-18T08:38:09.043Z,99456.84
2018-12-18T08:40:37.125Z,99459.33
2018-12-18T08:43:05.159Z,99455.48
2018-12-18T08:45:33.323Z,99452.95
2018-12-18T08:48:01.702Z,99445.89
2018-12-18T08:50:29.751Z,99440.85
2018-12-18T08:52:57.791Z,99432.90
2018-12-18T08:55:25.915Z,99425.95
2018-12-18T08:57:54.158Z,99407.14
2018-12-18T09:00:22.195Z,99403.97
2018-12-18T09:02:50.586Z,99404.41
2018-12-18T09:05:19.235Z,99392.95
2018-12-18T09:07:47.299Z,99404.20
2018-12-18T09:10:15.483Z,99405.48
2018-12-18T09:12:44.126Z,99393.69
2018-12-18T09:15:14.062Z,99397.13
2018-12-18T09:17:44.323Z,99399.36
2018-12-18T09:20:12.547Z,99400.15
2018-12-18T09:22:40.852Z,99407.11
2018-12-18T09:25:09.311Z,99396.63
2018-12-18T09:27:37.398Z,99399.95
2018-12-18T09:30:08.922Z,99397.85
2018-12-18T09:32:36.963Z,99390.59
2018-12-18T09:35:05.915Z,99386.29
2018-12-18T09:37:34.015Z,99382.09
2018-12-18T09:40:02.180Z,99360.14
2018-12-18T09:42:32.099Z,99368.34
2018-12-18T09:45:00.183Z,99358.22
2018-12-18T09:47:28.238Z,99375.19
2018-12-18T09:49:56.286Z,99366.61
2018-12-18T09:52:24.387Z,99375.97
2018-12-18T09:54:52.563Z,99365.42
2018-12-18T09:57:22.483Z,99356.66
2018-12-18T09:59:50.824Z,99348.41
2018-12-18T10:02:18.907Z,99351.93
2018-12-18T10:04:46.967Z,99332.31
2018-12-18T10:07:15.340Z,99310.08
2018-12-18T10:09:43.499Z,99302.08
2018-12-18T10:12:11.831Z,99299.60
2018-12-18T10:14:40.020Z,99297.55
2018-12-18T10:17:08.091Z,99289.46
2018-12-18T10:19:36.194Z,99274.56
2018-12-18T10:22:04.319Z,99272.88
2018-12-18T10:24:32.482Z,99275.14
2018-12-18T10:27:01.221Z,99289.42
2018-12-18T10:29:29.247Z,99283.73
2018-12-18T10:31:57.333Z,99268.55
2018-12-18T10:34:25.383Z,99269.75
2018-12-18T10:36:53.471Z,99261.56
2018-12-18T10:39:21.538Z,99261.71
2018-12-18T10:41:49.863Z,99248.98
2018-12-18T10:44:17.890Z,99244.25
2018-12-18T10:46:45.966Z,99239.40
2018-12-18T10:49:14.039Z,99241.11
2018-12-18T10:51:43.373Z,99223.55
2018-12-18T10:54:11.486Z,99225.68
2018-12-18T10:56:39.575Z,99232.85
2018-12-18T10:59:07.653Z,99228.63
2018-12-18T11:01:37.678Z,99220.00
2018-12-18T11:04:05.791Z,99206.67
2018-12-18T11:06:33.863Z,99198.25
2018-12-18T11:09:01.983Z,99193.02
2018-12-18T11:11:30.043Z,99186.19
2018-12-18T11:13:58.162Z,99183.47
2018-12-18T11:16:26.291Z,99181.55
2018-12-18T11:18:54.356Z,99192.80
2018-12-18T11:21:22.735Z,99189.45
2018-12-18T11:23:50.831Z,99181.52
2018-12-18T11:26:18.983Z,99176.69
2018-12-18T11:28:47.267Z,99175.69
2018-12-18T11:31:15.327Z,99168.20
2018-12-18T11:33:43.704Z,99162.03
2018-12-18T11:36:16.427Z,99156.59
2018-12-18T11:38:41.952Z,99150.25
2018-12-18T11:41:09.974Z,99160.38
2018-12-18T11:43:38.635Z,99156.84
2018-12-18T11:46:06.843Z,99149.97
2018-12-18T11:48:34.899Z,99146.27
2018-12-18T11:51:03.059Z,99143.71
2018-12-18T11:53:31.675Z,99141.71
2018-12-18T11:55:59.760Z,99132.92
2018-12-18T11:58:27.902Z,99116.75
2018-12-18T12:00:56.339Z,99109.75
2018-12-18T12:03:24.463Z,99113.40
2018-12-18T12:05:52.535Z,99112.28
2018-12-18T12:08:20.711Z,99108.23
2018-12-18T12:10:48.883Z,99109.09
2018-12-18T12:13:17.060Z,99111.69
2018-12-18T12:15:45.119Z,99107.84
2018-12-18T12:18:13.190Z,99103.04
2018-12-18T12:20:41.291Z,99095.53
2018-12-18T12:23:09.352Z,99087.06
2018-12-18T12:25:37.506Z,99085.06
2018-12-18T12:28:05.850Z,99072.38
2018-12-18T12:30:34.503Z,99067.30
2018-12-18T12:33:02.621Z,99063.29
2018-12-18T12:35:30.731Z,99057.28
2018-12-18T12:37:58.783Z,99061.91
2018-12-18T12:40:26.855Z,99054.69
2018-12-18T12:42:54.936Z,99053.11
2018-12-18T12:45:22.988Z,99036.41
2018-12-18T12:47:52.246Z,99028.07
2018-12-18T12:50:20.351Z,99018.47
2018-12-18T12:52:48.431Z,99013.75
2018-12-18T12:55:16.912Z,99010.69
2018-12-18T12:57:44.956Z,99012.26
2018-12-18T13:00:13.631Z,99008.34
2018-12-18T13:02:41.943Z,98999.17
2018-12-18T13:05:10.634Z,99005.40
2018-12-18T13:07:38.699Z,98993.75
2018-12-18T13:10:07.251Z,98990.38
2018-12-18T13:12:35.339Z,98987.08
2018-12-18T13:15:03.927Z,98986.48
2018-12-18T13:17:32.088Z,98979.38
2018-12-18T13:20:00.354Z,98968.95
2018-12-18T13:22:28.494Z,98967.79
2018-12-18T13:24:56.619Z,98952.95
2018-12-18T13:27:24.714Z,98953.02
2018-12-18T13:29:53.184Z,98955.91
2018-12-18T13:32:21.512Z,98964.59
2018-12-18T13:34:49.738Z,98966.30
2018-12-18T13:37:17.795Z,98952.86
2018-12-18T13:39:46.003Z,98944.97
2018-12-18T13:42:14.140Z,98940.86
2018-12-18T13:44:42.251Z,98946.92
2018-12-18T13:47:10.387Z,98948.70
2018-12-18T13:49:38.542Z,98938.83
2018-12-18T13:52:06.623Z,98943.52
2018-12-18T13:54:34.696Z,98940.42
2018-12-18T13:57:02.775Z,98937.08
2018-12-18T13:59:30.822Z,98942.67
2018-12-18T14:01:58.866Z,98946.99
2018-12-18T14:04:27.711Z,98934.87
2018-12-18T14:06:55.782Z,98926.30
2018-12-18T14:09:24.140Z,98916.88
2018-12-18T14:11:52.235Z,98910.77
2018-12-18T14:14:20.309Z,98910.94
2018-12-18T14:16:48.392Z,98905.03
2018-12-18T14:19:16.479Z,98906.75
2018-12-18T14:21:44.515Z,98911.10
2018-12-18T14:24:12.595Z,98910.13
2018-12-18T14:26:40.711Z,98911.42
2018-12-18T14:29:08.926Z,98912.38
2018-12-18T14:31:37.143Z,98913.73
2018-12-18T14:34:05.178Z,98914.17
2018-12-18T14:36:33.239Z,98909.94
2018-12-18T14:39:01.446Z,98911.80
2018-12-18T14:41:29.535Z,98920.19
2018-12-18T14:43:57.615Z,98916.78
2018-12-18T14:46:25.720Z,98923.20
2018-12-18T14:48:53.819Z,98927.95
2018-12-18T14:51:21.907Z,98928.34
2018-12-18T14:53:50.103Z,98925.38
2018-12-18T14:56:18.185Z,98918.18
2018-12-18T14:58:46.226Z,98910.73
2018-12-18T15:01:14.275Z,98898.08
2018-12-18T15:03:42.363Z,98895.13
2018-12-18T15:06:10.427Z,98890.88
2018-12-18T15:08:38.902Z,98891.66
2018-12-18T15:11:07.010Z,98888.27
2018-12-18T15:13:35.151Z,98889.31
2018-12-18T15:16:03.239Z,98899.12
2018-12-18T15:18:31.319Z,98889.59
2018-12-18T15:20:59.403Z,98889.03
2018-12-18T15:23:27.482Z,98883.52
2018-12-18T15:25:55.607Z,98885.00
2018-12-18T15:28:23.672Z,98885.94
2018-12-18T15:30:51.780Z,98876.95
2018-12-18T15:33:19.855Z,98872.09
2018-12-18T15:35:48.459Z,98874.17
2018-12-18T15:38:16.598Z,98875.20
2018-12-18T15:40:45.098Z,98868.02
2018-12-18T15:43:13.142Z,98868.50
2018-12-18T15:45:41.210Z,98863.42
2018-12-18T15:48:09.258Z,98860.49
2018-12-18T15:50:37.395Z,98857.00
2018-12-18T15:53:05.530Z,98850.89
2018-12-18T15:55:33.574Z,98853.50
2018-12-18T15:58:01.660Z,98846.40
2018-12-18T16:00:29.763Z,98844.25
2018-12-18T16:02:57.835Z,98841.07
2018-12-18T16:05:25.871Z,98835.23
2018-12-18T16:07:53.979Z,98841.94
2018-12-18T16:10:22.051Z,98846.86
2018-12-18T16:12:50.120Z,98854.41
2018-12-18T16:15:18.182Z,98850.77
2018-12-18T16:17:46.442Z,98847.89
2018-12-18T16:20:14.519Z,98851.38
2018-12-18T16:22:42.723Z,98850.30
2018-12-18T16:25:10.791Z,98858.94
2018-12-18T16:27:38.855Z,98862.48
2018-12-18T16:30:07.198Z,98867.69
2018-12-18T16:32:35.283Z,98874.69
2018-12-18T16:35:03.559Z,98875.92
2018-12-18T16:37:31.699Z,98883.39
2018-12-18T16:39:59.934Z,98884.78
2018-12-18T16:42:28.070Z,98886.89
2018-12-18T16:44:56.234Z,98885.20
2018-12-18T16:47:24.303Z,98886.09
2018-12-18T16:49:52.461Z,98885.91
2018-12-18T16:52:20.595Z,98896.01
2018-12-18T16:54:48.674Z,98896.57
2018-12-18T16:57:16.714Z,98894.40
2018-12-18T16:59:44.763Z,98884.02
2018-12-18T17:02:13.027Z,98868.36
2018-12-18T17:04:41.042Z,98863.79
2018-12-18T17:07:09.099Z,98855.80
2018-12-18T17:09:37.202Z,98858.40
2018-12-18T17:12:05.321Z,98855.86
2018-12-18T17:14:33.411Z,98849.81
2018-12-18T17:17:01.620Z,98848.23
2018-12-18T17:19:29.767Z,98840.20
2018-12-18T17:21:57.828Z,98833.50
2018-12-18T17:24:25.898Z,98831.77
2018-12-18T17:26:53.971Z,98829.70
2018-12-18T17:29:22.176Z,98832.67
2018-12-18T17:31:50.275Z,98827.27
2018-12-18T17:34:18.334Z,98825.68
2018-12-18T17:36:46.458Z,98819.14
2018-12-18T17:39:14.672Z,98807.66
2018-12-18T17:41:42.786Z,98799.86
2018-12-18T17:44:10.917Z,98800.12
2018-12-18T17:46:38.983Z,98810.05
2018-12-18T17:49:07.063Z,98814.41
2018-12-18T17:51:35.175Z,98805.19
2018-12-18T17:54:03.682Z,98803.41
2018-12-18T17:56:31.762Z,98820.33
2018-12-18T17:59:00.274Z,98833.29
2018-12-18T18:01:28.527Z,98823.69
2018-12-18T18:03:56.582Z,98814.10
2018-12-18T18:06:24.670Z,98818.34
2018-12-18T18:08:52.871Z,98813.13
2018-12-18T18:11:21.035Z,98807.88
2018-12-18T18:13:49.114Z,98806.42
2018-12-18T18:16:17.183Z,98810.39
2018-12-18T18:18:45.247Z,98798.80
2018-12-18T18:21:13.406Z,98805.11
2018-12-18T18:23:41.863Z,98798.53
2018-12-18T18:26:11.715Z,98800.92
2018-12-18T18:28:39.774Z,98796.27
2018-12-18T18:31:07.867Z,98792.27
2018-12-18T18:33:35.918Z,98788.55
2018-12-18T18:36:04.024Z,98784.31
2018-12-18T18:38:32.066Z,98779.48
2018-12-18T18:41:00.151Z,98771.86
2018-12-18T18:43:28.415Z,98758.63
2018-12-18T18:45:56.487Z,98745.19
2018-12-18T18:48:24.563Z,98736.83
2018-12-18T18:50:53.824Z,98729.62
2018-12-18T18:53:22.135Z,98717.81
2018-12-18T18:55:50.204Z,98711.28
2018-12-18T18:58:18.384Z,98700.91
2018-12-18T19:00:46.431Z,98687.82
2018-12-18T19:03:14.491Z,98685.06
2018-12-18T19:05:42.723Z,98684.72
2018-12-18T19:08:10.759Z,98686.36
2018-12-18T19:10:38.819Z,98697.31
2018-12-18T19:13:06.884Z,98695.25
2018-12-18T19:15:35.024Z,98691.27
2018-12-18T19:18:03.155Z,98689.71
2018-12-18T19:20:31.305Z,98694.30
2018-12-18T19:22:59.471Z,98692.41
2018-12-18T19:25:28.395Z,98698.81
2018-12-18T19:27:56.583Z,98702.39
2018-12-18T19:30:24.657Z,98709.59
2018-12-18T19:32:53.125Z,98709.77
2018-12-18T19:35:21.207Z,98706.74
2018-12-18T19:37:49.367Z,98702.56
2018-12-18T19:40:17.508Z,98703.11
2018-12-18T19:42:45.558Z,98706.91
2018-12-18T19:45:13.727Z,98709.20
2018-12-18T19:47:42.204Z,98703.27
2018-12-18T19:50:10.304Z,98695.86
2018-12-18T19:52:38.357Z,98688.47
2018-12-18T19:55:06.594Z,98687.12
2018-12-18T19:57:34.654Z,98690.86
2018-12-18T20:00:04.260Z,98685.68
2018-12-18T20:02:32.334Z,98693.27
2018-12-18T20:05:00.407Z,98689.10
2018-12-18T20:07:28.467Z,98685.70
2018-12-18T20:09:56.511Z,98682.79
2018-12-18T20:12:24.618Z,98687.60
2018-12-18T20:14:52.695Z,98685.81
2018-12-18T20:17:20.779Z,98677.00
2018-12-18T20:19:48.814Z,98674.00
2018-12-18T20:22:16.883Z,98681.45
2018-12-18T20:24:45.085Z,98671.25
2018-12-18T20:27:13.148Z,98672.27
2018-12-18T20:29:41.470Z,98670.09
2018-12-18T20:32:09.710Z,98666.38
2018-12-18T20:34:37.742Z,98668.14
2018-12-18T20:37:05.826Z,98669.77
2018-12-18T20:39:34.028Z,98665.72
2018-12-18T20:42:02.083Z,98668.14
2018-12-18T20:44:30.243Z,98663.52
2018-12-18T20:46:58.319Z,98662.20
2018-12-18T20:49:26.784Z,98658.52
2018-12-18T20:51:54.890Z,98660.39
2018-12-18T20:54:23.342Z,98657.09
2018-12-18T20:56:51.543Z,98658.84
2018-12-18T20:59:19.615Z,98659.02
2018-12-18T21:01:47.827Z,98660.64
2018-12-18T21:04:15.958Z,98651.02
2018-12-18T21:06:44.031Z,98651.50
2018-12-18T21:09:12.615Z,98646.73
2018-12-18T21:11:40.655Z,98636.37
2018-12-18T21:14:08.739Z,98635.11
2018-12-18T21:16:36.822Z,98626.38
2018-12-18T21:19:04.903Z,98623.86
2018-12-18T21:21:32.971Z,98626.52
2018-12-18T21:24:02.113Z,98615.92
2018-12-18T21:26:30.180Z,98615.16
2018-12-18T21:28:58.227Z,98602.87
2018-12-18T21:31:26.362Z,98603.31
2018-12-18T21:33:54.458Z,98603.15
2018-12-18T21:36:22.527Z,98602.64
2018-12-18T21:38:50.616Z,98598.11
2018-12-18T21:41:18.677Z,98599.89
2018-12-18T21:43:46.726Z,98594.20
2018-12-18T21:46:14.835Z,98594.91
2018-12-18T21:48:42.866Z,98589.45
2018-12-18T21:51:11.029Z,98590.34
2018-12-18T21:53:39.146Z,98596.83
2018-12-18T21:56:07.407Z,98596.61
2018-12-18T21:58:35.475Z,98591.75
2018-12-18T22:01:03.844Z,98589.75
2018-12-18T22:03:31.931Z,98596.89
2018-12-18T22:06:00.003Z,98593.22
2018-12-18T22:08:28.099Z,98598.86
2018-12-18T22:10:56.134Z,98601.39
2018-12-18T22:13:24.215Z,98607.23
2018-12-18T22:15:52.387Z,98608.13
2018-12-18T22:18:20.422Z,98614.61
2018-12-18T22:20:48.487Z,98619.89
2018-12-18T22:23:16.579Z,98615.05
2018-12-18T22:25:44.690Z,98603.44
2018-12-18T22:28:12.927Z,98604.55
2018-12-18T22:30:41.039Z,98604.94
2018-12-18T22:33:09.182Z,98599.37
2018-12-18T22:35:37.368Z,98584.19
2018-12-18T22:38:05.455Z,98587.19
2018-12-18T22:40:33.612Z,98577.92
2018-12-18T22:43:01.766Z,98565.73
2018-12-18T22:45:29.930Z,98564.88
2018-12-18T22:47:57.995Z,98561.58
2018-12-18T22:50:26.051Z,98563.58
2018-12-18T22:52:54.167Z,98563.74
2018-12-18T22:55:22.251Z,98561.45
2018-12-18T22:57:50.421Z,98561.09
2018-12-18T23:00:20.791Z,98559.53
2018-12-18T23:02:48.892Z,98559.72
2018-12-18T23:05:16.951Z,98547.09
2018-12-18T23:07:45.107Z,98555.35
2018-12-18T23:10:13.171Z,98544.78
2018-12-18T23:12:41.203Z,98549.03
2018-12-18T23:15:09.320Z,98549.88
2018-12-18T23:17:37.391Z,98553.31
2018-12-18T23:20:06.207Z,98548.63
2018-12-18T23:22:34.262Z,98555.25
2018-12-18T23:25:02.322Z,98548.94
2018-12-18T23:27:30.403Z,98551.34
2018-12-18T23:29:58.466Z,98549.55
2018-12-18T23:32:26.525Z,98539.89
2018-12-18T23:34:54.587Z,98534.03
2018-12-18T23:37:22.709Z,98539.97
2018-12-18T23:39:50.826Z,98537.37
2018-12-18T23:42:18.871Z,98539.90
2018-12-18T23:44:47.063Z,98538.02
2018-12-18T23:47:15.131Z,98528.35
2018-12-18T23:49:43.199Z,98533.98
2018-12-18T23:52:11.675Z,98534.61
2018-12-18T23:54:39.920Z,98531.85
2018-12-18T23:57:07.986Z,98536.36
2018-12-18T23:59:36.243Z,98537.25
